Time;durP1;ratioP1;P1;durP2;ratioP2;P2;SDS_P1;SDS_P2;PMS_P1;PMS_P2;Temp;Humidity;BMP_temperature;BMP_pressure;BME280_temperature;BME280_humidity;BME280_pressure;Samples;Min_cycle;Max_cycle;Signal;HPM_P1;HPM_P2
2022/01/04 00:00:17;;;;;;;;;;;19.80;58.60;;;;;;5052994;28;1831;-69
2022/01/04 00:02:42;;;;;;;;;;;19.80;58.70;;;;;;5037758;28;1245;-69
2022/01/04 00:05:08;;;;;;;;;;;19.80;58.70;;;;;;5052544;28;1160;-69
2022/01/04 00:07:33;;;;;;;;;;;19.80;58.70;;;;;;5052913;28;1369;-70
2022/01/04 00:09:59;;;;;;;;;;;19.70;58.70;;;;;;5052574;28;1355;-69
2022/01/04 00:15:09;;;;;;;;;;;19.70;58.70;;;;;;5052591;28;1965;-69
2022/01/04 00:17:34;;;;;;;;;;;19.70;58.70;;;;;;5051115;28;1288;-69
2022/01/04 00:20:00;;;;;;;;;;;19.70;58.80;;;;;;5052487;28;1284;-70
2022/01/04 00:22:25;;;;;;;;;;;19.70;58.80;;;;;;5051500;28;1389;-69
2022/01/04 00:24:51;;;;;;;;;;;19.70;58.80;;;;;;5050996;28;1352;-69
2022/01/04 00:27:16;;;;;;;;;;;19.70;58.80;;;;;;5051454;28;1279;-69
2022/01/04 00:29:42;;;;;;;;;;;19.70;58.80;;;;;;5052441;28;1301;-69
2022/01/04 00:32:07;;;;;;;;;;;19.70;58.90;;;;;;5051928;28;1094;-69
2022/01/04 00:34:33;;;;;;;;;;;19.70;58.90;;;;;;5052161;28;1089;-69
2022/01/04 00:36:58;;;;;;;;;;;19.70;58.90;;;;;;5052886;28;1910;-69
2022/01/04 00:39:23;;;;;;;;;;;19.70;58.90;;;;;;5052520;28;1068;-69
2022/01/04 00:41:49;;;;;;;;;;;19.70;59.00;;;;;;5052569;28;1285;-69
2022/01/04 00:44:14;;;;;;;;;;;19.70;59.00;;;;;;5052175;28;898;-69
2022/01/04 00:46:40;;;;;;;;;;;19.70;59.00;;;;;;5052210;28;1360;-68
2022/01/04 00:49:11;;;;;;;;;;;19.60;58.90;;;;;;5052429;28;1414;-69
2022/01/04 00:51:44;;;;;;;;;;;19.60;59.00;;;;;;5061319;22;3878;-71
2022/01/04 00:54:09;;;;;;;;;;;19.60;59.00;;;;;;5049895;28;1490;-71
2022/01/04 00:56:35;;;;;;;;;;;19.60;59.00;;;;;;5050911;28;1929;-71
2022/01/04 00:59:00;;;;;;;;;;;19.60;59.00;;;;;;5051702;28;1752;-71
2022/01/04 01:01:26;;;;;;;;;;;19.60;59.10;;;;;;5044950;28;1432;-69
2022/01/04 01:03:51;;;;;;;;;;;19.60;59.00;;;;;;5044786;28;1441;-69
2022/01/04 01:06:17;;;;;;;;;;;19.60;59.00;;;;;;5050560;28;1547;-69
2022/01/04 01:08:42;;;;;;;;;;;19.60;59.00;;;;;;5050649;28;1365;-69
2022/01/04 01:11:08;;;;;;;;;;;19.60;59.10;;;;;;5051600;28;1423;-69
2022/01/04 01:13:34;;;;;;;;;;;19.60;59.10;;;;;;5051400;28;1348;-69
2022/01/04 01:15:59;;;;;;;;;;;19.60;59.10;;;;;;5051719;28;1894;-68
2022/01/04 01:18:25;;;;;;;;;;;19.60;59.10;;;;;;5051887;28;1365;-68
2022/01/04 01:20:50;;;;;;;;;;;19.60;59.10;;;;;;5050343;28;1742;-68
2022/01/04 01:23:16;;;;;;;;;;;19.60;59.20;;;;;;5054453;28;1386;-69
2022/01/04 01:25:41;;;;;;;;;;;19.50;59.10;;;;;;5054832;28;1715;-69
2022/01/04 01:28:07;;;;;;;;;;;19.50;59.20;;;;;;5055777;28;1336;-69
2022/01/04 01:30:35;;;;;;;;;;;19.50;59.20;;;;;;5054744;28;1673;-68
2022/01/04 01:33:01;;;;;;;;;;;19.50;59.20;;;;;;5054788;28;1363;-69
2022/01/04 01:35:26;;;;;;;;;;;19.60;59.30;;;;;;5055129;28;1897;-69
2022/01/04 01:37:52;;;;;;;;;;;19.50;59.20;;;;;;5055454;28;1701;-69
2022/01/04 01:40:17;;;;;;;;;;;19.50;59.20;;;;;;5053904;28;1703;-70
2022/01/04 01:42:42;;;;;;;;;;;19.50;59.20;;;;;;5054619;28;1333;-69
2022/01/04 01:45:09;;;;;;;;;;;19.50;59.30;;;;;;5053395;28;1393;-70
2022/01/04 01:47:37;;;;;;;;;;;19.50;59.30;;;;;;5055261;28;1154;-69
2022/01/04 01:50:02;;;;;;;;;;;19.50;59.30;;;;;;5054907;28;1438;-70
2022/01/04 01:52:28;;;;;;;;;;;19.50;59.30;;;;;;5053805;28;1474;-70
2022/01/04 01:54:53;;;;;;;;;;;19.50;59.30;;;;;;5053878;28;1957;-69
2022/01/04 01:57:19;;;;;;;;;;;19.50;59.30;;;;;;5053923;28;1676;-70
2022/01/04 01:59:44;;;;;;;;;;;19.50;59.40;;;;;;5053442;28;1638;-69
2022/01/04 02:02:10;;;;;;;;;;;19.50;59.30;;;;;;5054691;28;1519;-69
2022/01/04 02:04:35;;;;;;;;;;;19.50;59.30;;;;;;5053827;28;1632;-69
2022/01/04 02:07:01;;;;;;;;;;;19.50;59.30;;;;;;5054168;28;1364;-69
2022/01/04 02:09:26;;;;;;;;;;;19.50;59.30;;;;;;5053420;28;1429;-69
2022/01/04 02:11:53;;;;;;;;;;;19.50;59.40;;;;;;5052934;28;1497;-69
2022/01/04 02:14:19;;;;;;;;;;;19.50;59.40;;;;;;5053722;28;1449;-68
2022/01/04 02:16:44;;;;;;;;;;;19.50;59.40;;;;;;5053647;28;1901;-69
2022/01/04 02:19:10;;;;;;;;;;;19.50;59.40;;;;;;5054605;28;1420;-68
2022/01/04 02:21:35;;;;;;;;;;;19.50;59.40;;;;;;5054058;28;1430;-70
2022/01/04 02:24:01;;;;;;;;;;;19.50;59.40;;;;;;5038745;28;1486;-70
2022/01/04 02:26:28;;;;;;;;;;;19.50;59.40;;;;;;5056157;28;1291;-69
2022/01/04 02:28:53;;;;;;;;;;;19.50;59.40;;;;;;5056644;28;1645;-71
2022/01/04 02:31:19;;;;;;;;;;;19.40;59.40;;;;;;5055117;28;1440;-72
2022/01/04 02:33:45;;;;;;;;;;;19.40;59.40;;;;;;5052851;28;1497;-72
2022/01/04 02:36:10;;;;;;;;;;;19.40;59.40;;;;;;5055728;28;1893;-72
2022/01/04 02:38:37;;;;;;;;;;;19.40;59.40;;;;;;5055661;28;1529;-72
2022/01/04 02:41:02;;;;;;;;;;;19.50;59.40;;;;;;5054073;28;1447;-71
2022/01/04 02:43:28;;;;;;;;;;;19.40;59.40;;;;;;5053423;28;1697;-71
2022/01/04 02:45:53;;;;;;;;;;;19.50;59.40;;;;;;5052811;28;1381;-71
2022/01/04 02:48:18;;;;;;;;;;;19.50;59.30;;;;;;5054510;28;1354;-71
2022/01/04 02:50:44;;;;;;;;;;;19.50;59.80;;;;;;5053936;28;1597;-68
2022/01/04 02:53:09;;;;;;;;;;;19.50;59.20;;;;;;5052918;28;1383;-68
2022/01/04 02:55:35;;;;;;;;;;;19.50;59.10;;;;;;5053500;28;1906;-71
2022/01/04 02:58:00;;;;;;;;;;;19.60;59.10;;;;;;5053715;28;1679;-69
2022/01/04 03:00:26;;;;;;;;;;;19.60;59.00;;;;;;5050456;28;1357;-70
2022/01/04 03:02:51;;;;;;;;;;;19.60;58.90;;;;;;5037392;28;1283;-70
2022/01/04 03:05:17;;;;;;;;;;;19.70;58.80;;;;;;5052148;28;1374;-70
2022/01/04 03:07:42;;;;;;;;;;;19.70;58.80;;;;;;5053762;28;1299;-70
2022/01/04 03:10:08;;;;;;;;;;;19.70;58.70;;;;;;5052814;28;1287;-71
2022/01/04 03:12:34;;;;;;;;;;;19.70;58.60;;;;;;5052176;28;1368;-70
2022/01/04 03:15:00;;;;;;;;;;;19.70;58.60;;;;;;5051706;28;1910;-71
2022/01/04 03:17:25;;;;;;;;;;;19.80;58.60;;;;;;5051858;28;1658;-70
2022/01/04 03:19:51;;;;;;;;;;;19.80;58.50;;;;;;5053051;28;1640;-70
2022/01/04 03:22:16;;;;;;;;;;;19.80;58.50;;;;;;5047755;28;1266;-70
2022/01/04 03:24:42;;;;;;;;;;;19.80;58.40;;;;;;5046111;28;1282;-70
2022/01/04 03:27:07;;;;;;;;;;;19.80;58.40;;;;;;5051692;28;1372;-70
2022/01/04 03:29:33;;;;;;;;;;;19.80;58.40;;;;;;5052720;28;1331;-69
2022/01/04 03:31:58;;;;;;;;;;;19.80;58.30;;;;;;5051952;28;1520;-70
2022/01/04 03:34:24;;;;;;;;;;;19.80;58.30;;;;;;5052751;28;1179;-70
2022/01/04 03:36:49;;;;;;;;;;;19.80;58.30;;;;;;5051716;28;1899;-70
2022/01/04 03:39:15;;;;;;;;;;;19.90;58.30;;;;;;5052004;28;1546;-70
2022/01/04 03:41:41;;;;;;;;;;;19.90;58.30;;;;;;5051320;28;1690;-71
2022/01/04 03:44:07;;;;;;;;;;;19.90;58.30;;;;;;5051146;28;1397;-71
2022/01/04 03:46:32;;;;;;;;;;;19.90;58.30;;;;;;5050592;28;1174;-71
2022/01/04 03:48:57;;;;;;;;;;;19.90;58.30;;;;;;5043576;28;969;-71
2022/01/04 03:51:23;;;;;;;;;;;19.90;58.30;;;;;;5053686;28;1587;-71
2022/01/04 03:53:48;;;;;;;;;;;19.90;58.20;;;;;;5051870;28;1394;-71
2022/01/04 03:56:14;;;;;;;;;;;19.90;58.20;;;;;;5052209;28;1894;-71
2022/01/04 03:58:39;;;;;;;;;;;19.90;58.20;;;;;;5052338;28;1076;-71
2022/01/04 04:01:05;;;;;;;;;;;19.90;58.30;;;;;;5050181;28;1255;-71
2022/01/04 04:03:30;;;;;;;;;;;19.90;58.20;;;;;;5041264;28;1075;-71
2022/01/04 04:05:56;;;;;;;;;;;19.90;58.20;;;;;;5052303;28;1123;-71
2022/01/04 04:08:21;;;;;;;;;;;19.90;58.20;;;;;;5052695;28;1321;-71
2022/01/04 04:10:46;;;;;;;;;;;19.90;58.20;;;;;;5051852;28;1800;-71
2022/01/04 04:13:12;;;;;;;;;;;19.90;58.20;;;;;;5052572;28;1063;-71
2022/01/04 04:15:40;;;;;;;;;;;19.90;58.20;;;;;;5053120;28;1965;-71
2022/01/04 04:18:07;;;;;;;;;;;19.90;58.20;;;;;;5052191;28;1170;-71
2022/01/04 04:20:33;;;;;;;;;;;19.90;58.20;;;;;;5052939;28;1362;-71
2022/01/04 04:22:59;;;;;;;;;;;19.90;58.10;;;;;;5052528;28;1111;-71
2022/01/04 04:25:24;;;;;;;;;;;19.90;58.10;;;;;;5052730;28;1134;-71
2022/01/04 04:27:49;;;;;;;;;;;19.90;58.20;;;;;;5053312;28;1118;-71
2022/01/04 04:30:15;;;;;;;;;;;19.90;58.10;;;;;;5052697;28;1273;-71
2022/01/04 04:32:40;;;;;;;;;;;19.90;58.10;;;;;;5052598;28;1114;-70
2022/01/04 04:35:06;;;;;;;;;;;19.90;58.70;;;;;;5052171;28;2301;-71
2022/01/04 04:37:32;;;;;;;;;;;19.90;58.30;;;;;;5052263;28;1138;-71
2022/01/04 04:39:57;;;;;;;;;;;19.90;58.10;;;;;;5051237;28;1256;-70
2022/01/04 04:42:23;;;;;;;;;;;19.90;58.10;;;;;;5053488;28;1297;-71
2022/01/04 04:44:48;;;;;;;;;;;20.00;58.10;;;;;;5052754;28;1055;-71
2022/01/04 04:47:13;;;;;;;;;;;20.00;58.10;;;;;;5053052;28;1260;-71
2022/01/04 04:49:39;;;;;;;;;;;20.00;58.10;;;;;;5052649;28;1047;-71
2022/01/04 04:52:05;;;;;;;;;;;20.00;58.00;;;;;;5052872;28;1317;-71
2022/01/04 04:54:30;;;;;;;;;;;19.90;58.00;;;;;;5051370;28;1121;-71
2022/01/04 04:56:55;;;;;;;;;;;20.00;58.00;;;;;;5052671;28;1969;-71
2022/01/04 04:59:21;;;;;;;;;;;20.00;58.00;;;;;;5056293;28;1063;-71
2022/01/04 05:01:46;;;;;;;;;;;20.00;58.00;;;;;;5055231;28;1300;-71
2022/01/04 05:04:12;;;;;;;;;;;20.00;58.00;;;;;;5055957;28;1153;-71
2022/01/04 05:06:37;;;;;;;;;;;20.00;58.00;;;;;;5056749;28;1095;-71
2022/01/04 05:09:02;;;;;;;;;;;20.00;58.00;;;;;;5055764;28;1110;-71
2022/01/04 05:11:28;;;;;;;;;;;20.00;58.00;;;;;;5056064;28;1313;-71
2022/01/04 05:13:53;;;;;;;;;;;20.00;58.00;;;;;;5054768;28;1119;-71
2022/01/04 05:16:19;;;;;;;;;;;20.00;58.00;;;;;;5055159;28;1952;-71
2022/01/04 05:18:44;;;;;;;;;;;20.00;58.00;;;;;;5056060;28;1078;-71
2022/01/04 05:21:10;;;;;;;;;;;20.00;58.00;;;;;;5054774;28;1212;-71
2022/01/04 05:23:35;;;;;;;;;;;20.00;57.90;;;;;;5055341;28;963;-70
2022/01/04 05:26:01;;;;;;;;;;;20.00;57.90;;;;;;5054915;28;1091;-71
2022/01/04 05:28:26;;;;;;;;;;;19.90;57.90;;;;;;5055221;28;1139;-71
2022/01/04 05:30:51;;;;;;;;;;;20.00;57.90;;;;;;5054257;28;1309;-71
2022/01/04 05:33:17;;;;;;;;;;;20.00;57.90;;;;;;5054360;28;1064;-71
2022/01/04 05:35:42;;;;;;;;;;;20.00;57.90;;;;;;5054806;28;1886;-71
2022/01/04 05:38:08;;;;;;;;;;;20.00;57.80;;;;;;5054784;28;1162;-71
2022/01/04 05:40:34;;;;;;;;;;;20.00;57.80;;;;;;5054001;28;1302;-71
2022/01/04 05:43:00;;;;;;;;;;;20.00;57.80;;;;;;5054448;28;1127;-71
2022/01/04 05:45:25;;;;;;;;;;;20.00;57.80;;;;;;5055808;28;1103;-71
2022/01/04 05:47:50;;;;;;;;;;;20.00;57.80;;;;;;5055612;28;1303;-71
2022/01/04 05:50:16;;;;;;;;;;;20.00;57.80;;;;;;5053946;28;1265;-71
2022/01/04 05:52:41;;;;;;;;;;;20.00;57.80;;;;;;5055152;28;1280;-71
2022/01/04 05:55:07;;;;;;;;;;;20.00;57.80;;;;;;5055572;28;1918;-71
2022/01/04 05:57:32;;;;;;;;;;;20.00;57.80;;;;;;5054410;28;1044;-71
2022/01/04 05:59:58;;;;;;;;;;;20.10;57.80;;;;;;5054719;28;1273;-71
2022/01/04 06:02:23;;;;;;;;;;;20.00;57.80;;;;;;5042278;28;1232;-71
2022/01/04 06:04:49;;;;;;;;;;;20.10;57.80;;;;;;5054784;28;1082;-71
2022/01/04 06:07:14;;;;;;;;;;;20.10;57.80;;;;;;5055255;28;1355;-70
2022/01/04 06:09:43;;;;;;;;;;;20.10;57.80;;;;;;5055042;28;1412;-71
2022/01/04 06:14:53;;;;;;;;;;;20.10;57.80;;;;;;5053550;28;1095;-71
2022/01/04 06:17:18;;;;;;;;;;;20.00;58.30;;;;;;5053968;28;1894;-71
2022/01/04 06:19:44;;;;;;;;;;;20.00;57.70;;;;;;5054929;28;1365;-71
2022/01/04 06:22:09;;;;;;;;;;;20.00;58.40;;;;;;5053205;28;1099;-71
2022/01/04 06:24:36;;;;;;;;;;;20.10;57.80;;;;;;5055128;28;1114;-71
2022/01/04 06:27:04;;;;;;;;;;;20.00;57.70;;;;;;5055220;28;1141;-71
2022/01/04 06:29:29;;;;;;;;;;;20.00;57.80;;;;;;5055098;28;1301;-71
2022/01/04 06:31:55;;;;;;;;;;;20.10;57.80;;;;;;5054579;28;1205;-71
2022/01/04 06:34:20;;;;;;;;;;;20.00;57.80;;;;;;5053018;28;1150;-71
2022/01/04 06:36:45;;;;;;;;;;;20.00;57.80;;;;;;5054724;28;1959;-70
2022/01/04 06:39:11;;;;;;;;;;;20.00;57.80;;;;;;5055472;28;1047;-71
2022/01/04 06:41:36;;;;;;;;;;;20.00;57.80;;;;;;5053030;28;1225;-70
2022/01/04 06:44:02;;;;;;;;;;;20.10;57.80;;;;;;5054580;28;1043;-71
2022/01/04 06:46:27;;;;;;;;;;;20.00;57.80;;;;;;5054895;28;1112;-71
2022/01/04 06:48:53;;;;;;;;;;;20.00;57.80;;;;;;5054721;28;1134;-71
2022/01/04 06:51:18;;;;;;;;;;;20.00;57.80;;;;;;5054660;28;1352;-71
2022/01/04 06:53:44;;;;;;;;;;;20.00;57.80;;;;;;5039482;28;1589;-69
2022/01/04 06:56:09;;;;;;;;;;;20.00;57.80;;;;;;5046498;28;1918;-72
2022/01/04 06:58:35;;;;;;;;;;;20.00;57.80;;;;;;5050216;28;1141;-70
2022/01/04 07:01:00;;;;;;;;;;;20.10;57.90;;;;;;5049632;28;1337;-68
2022/01/04 07:03:26;;;;;;;;;;;20.00;57.80;;;;;;5040835;28;1412;-70
2022/01/04 07:05:51;;;;;;;;;;;20.00;57.80;;;;;;5053107;28;1138;-69
2022/01/04 07:08:16;;;;;;;;;;;20.00;57.80;;;;;;5052499;28;1074;-68
2022/01/04 07:10:42;;;;;;;;;;;20.00;57.80;;;;;;5053823;28;1404;-68
2022/01/04 07:13:07;;;;;;;;;;;20.00;57.80;;;;;;5053757;28;1250;-69
2022/01/04 07:15:33;;;;;;;;;;;20.00;57.80;;;;;;5053174;28;1906;-69
2022/01/04 07:17:58;;;;;;;;;;;20.00;57.80;;;;;;5054203;28;1321;-69
2022/01/04 07:20:24;;;;;;;;;;;20.00;57.80;;;;;;5051123;28;1272;-68
2022/01/04 07:22:49;;;;;;;;;;;20.00;57.80;;;;;;5051952;28;1408;-67
2022/01/04 07:25:15;;;;;;;;;;;20.00;57.80;;;;;;5051111;28;1241;-68
2022/01/04 07:27:40;;;;;;;;;;;20.00;57.80;;;;;;5054789;28;1146;-69
2022/01/04 07:30:06;;;;;;;;;;;20.00;57.80;;;;;;5052377;28;1269;-69
2022/01/04 07:32:31;;;;;;;;;;;20.00;57.80;;;;;;5052214;28;1448;-70
2022/01/04 07:34:57;;;;;;;;;;;20.00;57.80;;;;;;5051430;28;1059;-71
2022/01/04 07:37:22;;;;;;;;;;;20.00;57.80;;;;;;5052529;28;1898;-70
2022/01/04 07:39:48;;;;;;;;;;;20.00;57.80;;;;;;5044397;28;2145;-68
2022/01/04 07:42:13;;;;;;;;;;;20.00;57.80;;;;;;5050871;28;1019;-68
2022/01/04 07:44:38;;;;;;;;;;;20.00;57.80;;;;;;5045747;28;1097;-69
2022/01/04 07:47:04;;;;;;;;;;;20.00;57.80;;;;;;5051727;28;1047;-68
2022/01/04 07:49:29;;;;;;;;;;;20.00;57.80;;;;;;5051947;28;1069;-70
2022/01/04 07:51:55;;;;;;;;;;;20.00;57.80;;;;;;5053584;28;1300;-70
2022/01/04 07:54:20;;;;;;;;;;;20.00;57.90;;;;;;5030473;28;1208;-68
2022/01/04 07:56:46;;;;;;;;;;;20.00;57.80;;;;;;5052901;28;1906;-70
2022/01/04 07:59:11;;;;;;;;;;;20.00;57.80;;;;;;5053963;28;1312;-71
2022/01/04 08:01:37;;;;;;;;;;;20.10;57.70;;;;;;5049436;28;1869;-70
2022/01/04 08:04:04;;;;;;;;;;;20.20;57.70;;;;;;5038263;28;2051;-70
2022/01/04 08:06:29;;;;;;;;;;;20.30;57.60;;;;;;5051043;28;1153;-70
2022/01/04 08:08:55;;;;;;;;;;;20.40;57.50;;;;;;5052304;28;1091;-70
2022/01/04 08:11:20;;;;;;;;;;;20.50;57.30;;;;;;5052333;28;1294;-70
2022/01/04 08:13:46;;;;;;;;;;;20.60;57.10;;;;;;5042487;28;2045;-70
2022/01/04 08:16:14;;;;;;;;;;;20.70;56.90;;;;;;5049671;28;1914;-70
2022/01/04 08:18:40;;;;;;;;;;;20.80;56.70;;;;;;5046197;28;1133;-70
2022/01/04 08:21:07;;;;;;;;;;;20.90;56.50;;;;;;5050217;28;1360;-70
2022/01/04 08:23:32;;;;;;;;;;;20.90;56.20;;;;;;5038735;28;1070;-69
2022/01/04 08:25:57;;;;;;;;;;;21.00;56.10;;;;;;5050732;28;1076;-70
2022/01/04 08:28:23;;;;;;;;;;;21.10;55.90;;;;;;5052405;28;1051;-70
2022/01/04 08:30:48;;;;;;;;;;;21.10;55.70;;;;;;5050959;28;1731;-70
2022/01/04 08:33:14;;;;;;;;;;;21.20;55.60;;;;;;5053239;28;1095;-69
2022/01/04 08:35:39;;;;;;;;;;;21.30;55.50;;;;;;5055135;28;1961;-69
2022/01/04 08:38:05;;;;;;;;;;;21.30;55.30;;;;;;5054443;28;1123;-70
2022/01/04 08:40:31;;;;;;;;;;;21.40;55.20;;;;;;5055092;28;1288;-70
2022/01/04 08:42:56;;;;;;;;;;;21.40;55.10;;;;;;5055536;28;1178;-69
2022/01/04 08:45:23;;;;;;;;;;;21.40;55.00;;;;;;5055984;28;1118;-69
2022/01/04 08:47:49;;;;;;;;;;;21.50;54.90;;;;;;5054276;28;1171;-70
2022/01/04 08:50:15;;;;;;;;;;;21.50;54.90;;;;;;5054186;28;1381;-70
2022/01/04 08:52:40;;;;;;;;;;;21.60;54.90;;;;;;5054070;28;1095;-69
2022/01/04 08:55:06;;;;;;;;;;;21.60;54.80;;;;;;5054922;28;1099;-69
2022/01/04 08:57:32;;;;;;;;;;;21.60;54.80;;;;;;5054397;28;1961;-69
2022/01/04 08:59:57;;;;;;;;;;;21.60;54.80;;;;;;5054374;28;1358;-71
2022/01/04 09:02:23;;;;;;;;;;;21.60;54.80;;;;;;5040542;28;1312;-70
2022/01/04 09:04:48;;;;;;;;;;;21.60;54.80;;;;;;5054083;28;1135;-69
2022/01/04 09:07:14;;;;;;;;;;;21.70;54.90;;;;;;5055317;28;1054;-71
2022/01/04 09:09:40;;;;;;;;;;;21.70;55.00;;;;;;5055343;28;1150;-69
2022/01/04 09:12:05;;;;;;;;;;;21.60;54.90;;;;;;5054240;28;1361;-69
2022/01/04 09:14:56;;;;;;;;;;;21.60;54.90;;;;;;5054718;28;1408;-69
2022/01/04 09:20:07;;;;;;;;;;;21.60;54.90;;;;;;5055591;28;1391;-73
2022/01/04 09:22:32;;;;;;;;;;;21.60;54.90;;;;;;5053847;28;1829;-70
2022/01/04 09:24:57;;;;;;;;;;;21.60;54.90;;;;;;5043377;28;1000;-69
2022/01/04 09:27:23;;;;;;;;;;;21.60;54.90;;;;;;5051439;28;1125;-69
2022/01/04 09:29:49;;;;;;;;;;;21.60;54.90;;;;;;5054741;28;1360;-71
2022/01/04 09:32:16;;;;;;;;;;;21.60;54.90;;;;;;5053582;28;1102;-71
2022/01/04 09:34:45;;;;;;;;;;;21.50;54.90;;;;;;5054130;28;1063;-71
2022/01/04 09:37:10;;;;;;;;;;;21.60;54.90;;;;;;5055153;28;1898;-70
2022/01/04 09:39:36;;;;;;;;;;;21.50;54.90;;;;;;5054941;28;1067;-70
2022/01/04 09:42:01;;;;;;;;;;;21.50;55.00;;;;;;5054394;28;1259;-70
2022/01/04 09:44:27;;;;;;;;;;;21.50;55.10;;;;;;5049329;28;977;-70
2022/01/04 09:46:53;;;;;;;;;;;21.50;55.20;;;;;;5054820;28;1138;-70
2022/01/04 09:49:18;;;;;;;;;;;21.50;55.20;;;;;;5053773;28;1052;-70
2022/01/04 09:51:44;;;;;;;;;;;21.40;55.20;;;;;;5053260;28;1356;-70
2022/01/04 09:54:09;;;;;;;;;;;21.40;55.30;;;;;;5053055;28;1331;-70
2022/01/04 09:56:35;;;;;;;;;;;21.40;55.30;;;;;;5054514;28;1906;-70
2022/01/04 09:59:00;;;;;;;;;;;21.40;55.40;;;;;;5054840;28;1280;-70
2022/01/04 10:01:27;;;;;;;;;;;21.40;55.50;;;;;;5048861;28;1286;-70
2022/01/04 10:03:52;;;;;;;;;;;21.40;55.50;;;;;;5045730;28;1555;-70
2022/01/04 10:06:18;;;;;;;;;;;21.30;55.50;;;;;;5054483;28;1369;-70
2022/01/04 10:08:55;;;;;;;;;;;21.30;55.50;;;;;;5054733;28;1260;-70
2022/01/04 10:11:37;;;;;;;;;;;21.30;55.60;;;;;;5039892;28;1243;-69
2022/01/04 10:14:22;;;;;;;;;;;21.30;55.60;;;;;;5052682;28;1122;-70
2022/01/04 10:16:51;;;;;;;;;;;21.30;55.70;;;;;;5054619;28;1894;-70
2022/01/04 10:19:26;;;;;;;;;;;21.20;55.70;;;;;;5054589;28;1300;-70
2022/01/04 10:22:07;;;;;;;;;;;21.20;55.70;;;;;;5052932;28;1243;-70
2022/01/04 10:24:32;;;;;;;;;;;21.20;55.90;;;;;;5053040;28;1385;-70
2022/01/04 10:26:58;;;;;;;;;;;21.20;55.80;;;;;;5053972;28;1277;-70
2022/01/04 10:29:23;;;;;;;;;;;21.20;55.80;;;;;;5053020;28;1308;-70
2022/01/04 10:31:51;;;;;;;;;;;21.20;55.90;;;;;;5033972;28;1267;-70
2022/01/04 10:34:16;;;;;;;;;;;21.20;55.90;;;;;;5052391;28;1143;-70
2022/01/04 10:36:44;;;;;;;;;;;21.10;55.90;;;;;;5054041;28;1963;-69
2022/01/04 10:39:10;;;;;;;;;;;21.10;55.90;;;;;;5052661;28;1299;-70
2022/01/04 10:41:35;;;;;;;;;;;21.10;56.00;;;;;;5053403;28;1286;-70
2022/01/04 10:44:06;;;;;;;;;;;21.10;56.10;;;;;;5053592;28;1130;-70
2022/01/04 10:46:35;;;;;;;;;;;21.10;56.10;;;;;;5052107;28;1168;-70
2022/01/04 10:49:01;;;;;;;;;;;21.10;56.10;;;;;;5053902;28;1365;-70
2022/01/04 10:51:26;;;;;;;;;;;21.10;56.20;;;;;;5053225;28;1368;-70
2022/01/04 10:53:55;;;;;;;;;;;21.10;56.20;;;;;;5052167;28;1456;-70
2022/01/04 10:56:26;;;;;;;;;;;21.10;56.20;;;;;;5052343;28;1910;-70
2022/01/04 10:58:52;;;;;;;;;;;21.10;56.30;;;;;;5053805;28;1162;-70
2022/01/04 11:01:19;;;;;;;;;;;21.00;56.20;;;;;;5051441;28;1583;-70
2022/01/04 11:03:45;;;;;;;;;;;21.10;56.30;;;;;;5051997;28;1368;-70
2022/01/04 11:06:24;;;;;;;;;;;21.10;56.20;;;;;;5051847;28;1367;-69
2022/01/04 11:08:49;;;;;;;;;;;21.10;56.20;;;;;;5052024;28;1330;-69
2022/01/04 11:11:15;;;;;;;;;;;21.10;56.20;;;;;;5039489;28;1210;-70
2022/01/04 11:13:40;;;;;;;;;;;21.10;56.10;;;;;;5052837;28;1390;-70
2022/01/04 11:16:06;;;;;;;;;;;21.10;56.10;;;;;;5051862;28;1902;-70
2022/01/04 11:18:32;;;;;;;;;;;21.20;56.10;;;;;;5051534;28;1036;-72
2022/01/04 11:20:57;;;;;;;;;;;21.20;56.00;;;;;;5049486;28;2107;-70
2022/01/04 11:23:24;;;;;;;;;;;21.20;55.90;;;;;;5052481;28;1210;-69
2022/01/04 11:25:50;;;;;;;;;;;21.20;55.90;;;;;;5034831;28;1520;-69
2022/01/04 11:28:15;;;;;;;;;;;21.20;55.90;;;;;;5048790;28;1185;-69
2022/01/04 11:30:59;;;;;;;;;;;21.20;55.80;;;;;;5052471;28;1369;-70
2022/01/04 11:33:29;;;;;;;;;;;21.30;55.90;;;;;;5052294;28;1109;-70
2022/01/04 11:35:55;;;;;;;;;;;21.20;55.80;;;;;;5051816;28;1949;-70
2022/01/04 11:38:29;;;;;;;;;;;21.20;55.80;;;;;;5052565;28;1417;-70
2022/01/04 11:40:55;;;;;;;;;;;21.20;55.80;;;;;;5051258;28;1386;-70
2022/01/04 11:43:28;;;;;;;;;;;21.20;55.80;;;;;;5052246;28;1347;-71
2022/01/04 11:45:53;;;;;;;;;;;21.20;55.80;;;;;;5052982;28;1269;-71
2022/01/04 11:48:25;;;;;;;;;;;21.20;55.80;;;;;;5051116;28;1385;-71
2022/01/04 11:50:52;;;;;;;;;;;21.20;55.80;;;;;;5052690;28;1317;-71
2022/01/04 11:53:17;;;;;;;;;;;21.20;55.90;;;;;;5050119;28;1096;-71
2022/01/04 11:55:50;;;;;;;;;;;21.20;55.90;;;;;;5051692;28;1933;-71
2022/01/04 11:58:17;;;;;;;;;;;21.20;55.90;;;;;;5052553;28;1084;-71
2022/01/04 12:00:45;;;;;;;;;;;21.20;56.00;;;;;;5052475;28;1285;-71
2022/01/04 12:03:11;;;;;;;;;;;21.20;55.90;;;;;;5039197;28;1273;-71
2022/01/04 12:05:39;;;;;;;;;;;21.20;56.00;;;;;;5052196;28;1149;-70
2022/01/04 12:08:19;;;;;;;;;;;21.20;56.00;;;;;;5052200;28;1095;-70
2022/01/04 12:10:45;;;;;;;;;;;21.10;56.00;;;;;;5048123;28;1260;-70
2022/01/04 12:13:11;;;;;;;;;;;21.10;56.00;;;;;;5050388;28;1088;-71
2022/01/04 12:15:37;;;;;;;;;;;21.10;56.10;;;;;;5052143;28;1965;-71
2022/01/04 12:18:08;;;;;;;;;;;21.10;56.10;;;;;;5052062;28;1154;-71
2022/01/04 12:20:43;;;;;;;;;;;21.10;56.80;;;;;;5050663;28;1476;-71
2022/01/04 12:23:24;;;;;;;;;;;21.10;56.20;;;;;;5051885;28;1108;-71
2022/01/04 12:26:05;;;;;;;;;;;21.10;56.20;;;;;;5051973;28;1154;-71
2022/01/04 12:28:37;;;;;;;;;;;21.10;56.30;;;;;;5051806;28;1016;-71
2022/01/04 12:31:18;;;;;;;;;;;21.10;56.30;;;;;;5052059;28;1196;-71
2022/01/04 12:33:44;;;;;;;;;;;21.10;56.40;;;;;;5051660;28;1394;-71
2022/01/04 12:36:09;;;;;;;;;;;21.00;56.30;;;;;;5050476;28;1945;-71
2022/01/04 12:38:35;;;;;;;;;;;21.00;56.40;;;;;;5052255;28;1313;-71
2022/01/04 12:41:06;;;;;;;;;;;21.00;56.40;;;;;;5051629;28;1376;-71
2022/01/04 12:43:31;;;;;;;;;;;21.00;56.40;;;;;;5051927;28;1368;-71
2022/01/04 12:45:57;;;;;;;;;;;21.00;56.40;;;;;;5051667;28;1078;-71
2022/01/04 12:48:41;;;;;;;;;;;21.00;56.40;;;;;;5052429;28;1349;-71
2022/01/04 12:51:23;;;;;;;;;;;21.00;56.50;;;;;;5051821;28;1357;-70
2022/01/04 12:53:49;;;;;;;;;;;21.00;56.50;;;;;;5051234;28;1091;-70
2022/01/04 12:56:14;;;;;;;;;;;21.00;56.50;;;;;;5051840;28;1953;-70
2022/01/04 12:58:39;;;;;;;;;;;21.00;56.50;;;;;;5052205;28;1063;-71
2022/01/04 13:01:05;;;;;;;;;;;21.00;56.50;;;;;;5051544;28;1341;-69
2022/01/04 13:03:31;;;;;;;;;;;21.00;56.40;;;;;;5051395;28;1381;-71
2022/01/04 13:06:00;;;;;;;;;;;21.00;56.40;;;;;;5050355;28;1200;-71
2022/01/04 13:08:26;;;;;;;;;;;21.10;56.30;;;;;;5049666;28;1146;-72
2022/01/04 13:11:02;;;;;;;;;;;21.10;56.30;;;;;;5047554;28;1259;-69
2022/01/04 13:13:28;;;;;;;;;;;21.10;56.20;;;;;;5051365;28;1098;-70
2022/01/04 13:15:53;;;;;;;;;;;21.10;56.20;;;;;;5046770;28;1955;-70
2022/01/04 13:18:26;;;;;;;;;;;21.10;56.10;;;;;;5044442;28;1348;-69
2022/01/04 13:20:51;;;;;;;;;;;21.10;56.10;;;;;;5055245;28;1261;-69
2022/01/04 13:23:18;;;;;;;;;;;21.10;56.10;;;;;;5054772;28;1158;-69
2022/01/04 13:25:44;;;;;;;;;;;21.20;56.10;;;;;;5055669;28;1190;-74
2022/01/04 13:28:09;;;;;;;;;;;21.10;56.10;;;;;;5054570;28;758;-69
2022/01/04 13:30:41;;;;;;;;;;;21.10;56.10;;;;;;5056131;28;1193;-70
2022/01/04 13:33:10;;;;;;;;;;;21.20;56.10;;;;;;5053531;28;1174;-70
2022/01/04 13:35:42;;;;;;;;;;;21.10;56.10;;;;;;5035365;28;1914;-70
2022/01/04 13:38:11;;;;;;;;;;;21.10;56.10;;;;;;5049736;28;1044;-71
2022/01/04 13:40:36;;;;;;;;;;;21.10;56.10;;;;;;5054144;28;1248;-73
2022/01/04 13:43:06;;;;;;;;;;;21.10;56.70;;;;;;5052894;28;1069;-70
2022/01/04 13:45:42;;;;;;;;;;;21.20;56.10;;;;;;5054431;28;1088;-70
2022/01/04 13:48:07;;;;;;;;;;;21.10;56.10;;;;;;5053694;28;1087;-71
2022/01/04 13:50:43;;;;;;;;;;;21.10;56.10;;;;;;5055134;28;1259;-72
2022/01/04 13:53:26;;;;;;;;;;;21.10;56.20;;;;;;5054410;28;1098;-70
2022/01/04 13:55:52;;;;;;;;;;;21.10;56.20;;;;;;5053890;28;1906;-70
2022/01/04 13:58:36;;;;;;;;;;;21.10;56.20;;;;;;5054878;28;999;-70
2022/01/04 14:01:16;;;;;;;;;;;21.10;56.20;;;;;;5052593;28;1335;-70
2022/01/04 14:03:42;;;;;;;;;;;21.10;56.30;;;;;;5045673;28;1056;-70
2022/01/04 14:06:26;;;;;;;;;;;21.10;56.30;;;;;;5053746;28;1174;-70
2022/01/04 14:08:52;;;;;;;;;;;21.10;56.30;;;;;;5052757;28;1199;-70
2022/01/04 14:11:21;;;;;;;;;;;21.00;56.30;;;;;;5042067;28;1298;-71
2022/01/04 14:13:48;;;;;;;;;;;21.10;56.40;;;;;;5052593;28;1134;-71
2022/01/04 14:16:14;;;;;;;;;;;21.00;56.30;;;;;;5042654;28;1959;-73
2022/01/04 14:18:58;;;;;;;;;;;21.00;56.40;;;;;;5053332;28;1012;-73
2022/01/04 14:21:40;;;;;;;;;;;21.00;56.40;;;;;;5054361;28;1208;-71
2022/01/04 14:24:25;;;;;;;;;;;21.00;56.40;;;;;;5053945;28;1118;-72
2022/01/04 14:26:50;;;;;;;;;;;21.00;56.50;;;;;;5054349;28;1012;-70
2022/01/04 14:29:28;;;;;;;;;;;21.00;56.50;;;;;;5054262;28;1075;-70
2022/01/04 14:31:57;;;;;;;;;;;21.00;56.50;;;;;;5054480;28;1259;-70
2022/01/04 14:34:22;;;;;;;;;;;21.00;56.50;;;;;;5052949;28;1147;-72
2022/01/04 14:36:48;;;;;;;;;;;21.00;56.50;;;;;;5053866;28;1890;-70